Terminal Aerodrome Forecast
Issued by NWS Sioux Falls, SD

Home | Current Version | Previous Version | Graphics & Text | Print | Product List | Glossary On
Versions: 1 2 3 4 5 6 7 8 9 10 11 12 13 14 15 16 17
000
FTUS43 KFSD 290523
TAFHON
TAF
KHON 290523Z 2906/3006 02012KT 3SM -SN OVC035
      TEMPO 2906/2908 6SM -SN OVC045
     FM290800 01010KT P6SM BKN040
     FM291400 35013G19KT P6SM BKN040
     FM292200 34010KT P6SM SCT150=

USA.gov is the U.S. government's official web portal to all federal, state and local government web resources and services.